createdAt,value
2018-03-16T00:00:50.805Z,7.34
2018-03-16T00:01:51.064Z,7.27
2018-03-16T00:02:51.037Z,7.26
2018-03-16T00:03:51.285Z,7.34
2018-03-16T00:04:50.728Z,7.29
2018-03-16T00:05:50.708Z,7.32
2018-03-16T00:06:51.218Z,7.31
2018-03-16T00:07:50.936Z,7.37
2018-03-16T00:08:50.918Z,7.26
2018-03-16T00:09:51.181Z,7.37
2018-03-16T00:10:50.614Z,7.27
2018-03-16T00:11:50.861Z,7.23
2018-03-16T00:12:51.104Z,7.26
2018-03-16T00:13:50.553Z,7.26
2018-03-16T00:14:50.806Z,7.27
2018-03-16T00:15:50.783Z,7.29
2018-03-16T00:16:50.765Z,7.19
2018-03-16T00:17:50.746Z,7.16
2018-03-16T00:18:50.730Z,7.23
2018-03-16T00:19:50.982Z,7.16
2018-03-16T00:20:50.689Z,7.17
2018-03-16T00:21:50.933Z,7.13
2018-03-16T00:22:50.655Z,7.2
2018-03-16T00:23:50.368Z,7.15
2018-03-16T00:24:50.347Z,7.15
2018-03-16T00:25:50.861Z,7.17
2018-03-16T00:26:50.580Z,7.15
2018-03-16T00:27:50.815Z,7.17
2018-03-16T00:28:50.803Z,7.19
2018-03-16T00:29:50.778Z,7.13
2018-03-16T00:30:50.227Z,7.13
2018-03-16T00:31:50.739Z,7.12
2018-03-16T00:32:50.453Z,7.13
2018-03-16T00:33:50.176Z,7.16
2018-03-16T00:34:50.417Z,7.16
2018-03-16T00:35:50.666Z,7.13
2018-03-16T00:36:50.648Z,7.09
2018-03-16T00:37:50.361Z,7.08
2018-03-16T00:38:50.603Z,7.02
2018-03-16T00:39:50.057Z,6.94
2018-03-16T00:40:50.566Z,7.01
2018-03-16T00:41:50.285Z,6.95
2018-03-16T00:42:50.004Z,6.94
2018-03-16T00:43:50.246Z,6.99
2018-03-16T00:44:50.487Z,6.98
2018-03-16T00:45:50.470Z,6.97
2018-03-16T00:46:50.455Z,6.98
2018-03-16T00:47:50.172Z,6.94
2018-03-16T00:48:50.152Z,6.94
2018-03-16T00:49:50.401Z,7.04
2018-03-16T00:50:49.846Z,7.04
2018-03-16T00:51:50.362Z,6.99
2018-03-16T00:52:50.071Z,6.99
2018-03-16T00:53:50.321Z,6.98
2018-03-16T00:54:50.033Z,7.04
2018-03-16T00:55:50.285Z,6.91
2018-03-16T00:56:49.726Z,6.91
2018-03-16T00:57:49.972Z,6.9
2018-03-16T00:58:49.952Z,6.97
2018-03-16T00:59:49.939Z,6.99
2018-03-16T01:00:50.183Z,6.95
2018-03-16T01:01:50.159Z,6.95
2018-03-16T01:02:49.613Z,6.86
2018-03-16T01:03:49.590Z,6.86
2018-03-16T01:04:49.573Z,6.91
2018-03-16T01:05:49.818Z,6.9
2018-03-16T01:06:49.533Z,6.9
2018-03-16T01:07:49.777Z,6.89
2018-03-16T01:08:50.026Z,6.91
2018-03-16T01:09:49.475Z,6.87
2018-03-16T01:10:49.991Z,6.81
2018-03-16T01:11:49.700Z,6.83
2018-03-16T01:12:49.689Z,6.87
2018-03-16T01:13:49.926Z,6.79
2018-03-16T01:14:49.641Z,6.84
2018-03-16T01:15:49.894Z,6.81
2018-03-16T01:16:49.601Z,6.77
2018-03-16T01:17:49.318Z,6.71
2018-03-16T01:18:49.834Z,6.76
2018-03-16T01:19:49.541Z,6.79
2018-03-16T01:20:49.790Z,6.76
2018-03-16T01:21:49.777Z,6.77
2018-03-16T01:22:49.224Z,6.71
2018-03-16T01:23:49.204Z,6.69
2018-03-16T01:24:49.451Z,6.72
2018-03-16T01:25:49.426Z,6.71
2018-03-16T01:26:49.143Z,6.71
2018-03-16T01:27:49.396Z,6.72
2018-03-16T01:28:49.366Z,6.73
2018-03-16T01:29:49.353Z,6.76
2018-03-16T01:30:49.327Z,6.69
2018-03-16T01:31:49.312Z,6.72
2018-03-16T01:32:49.292Z,6.71
2018-03-16T01:33:49.539Z,6.71
2018-03-16T01:34:49.250Z,6.68
2018-03-16T01:35:49.233Z,6.71
2018-03-16T01:36:49.213Z,6.77
2018-03-16T01:37:49.455Z,6.68
2018-03-16T01:38:49.180Z,6.71
2018-03-16T01:39:48.888Z,6.59
2018-03-16T01:40:49.400Z,6.69
2018-03-16T01:41:48.848Z,6.72
2018-03-16T01:42:49.096Z,6.66
2018-03-16T01:43:49.345Z,6.61
2018-03-16T01:44:49.057Z,6.63
2018-03-16T01:45:48.772Z,6.58
2018-03-16T01:46:49.020Z,6.65
2018-03-16T01:47:48.931Z,6.58
2018-03-16T01:48:48.711Z,6.69
2018-03-16T01:49:48.959Z,6.61
2018-03-16T01:50:49.200Z,6.65
2018-03-16T01:51:48.924Z,6.63
2018-03-16T01:52:48.630Z,6.54
2018-03-16T01:53:48.616Z,6.59
2018-03-16T01:54:48.593Z,6.63
2018-03-16T01:55:48.850Z,6.61
2018-03-16T01:56:49.086Z,6.68
2018-03-16T01:57:49.062Z,6.63
2018-03-16T01:58:48.780Z,6.51
2018-03-16T01:59:49.030Z,6.54
2018-03-16T02:00:48.480Z,6.54
2018-03-16T02:01:48.720Z,6.59
2018-03-16T02:02:48.700Z,6.59
2018-03-16T02:03:48.686Z,6.54
2018-03-16T02:04:48.671Z,6.59
2018-03-16T02:05:48.385Z,6.56
2018-03-16T02:06:48.356Z,6.54
2018-03-16T02:07:48.866Z,6.56
2018-03-16T02:08:48.588Z,6.56
2018-03-16T02:09:48.569Z,6.61
2018-03-16T02:10:48.545Z,6.61
2018-03-16T02:11:48.790Z,6.53
2018-03-16T02:12:48.502Z,6.61
2018-03-16T02:13:48.219Z,6.58
2018-03-16T02:14:48.471Z,6.59
2018-03-16T02:15:48.719Z,6.62
2018-03-16T02:16:48.426Z,6.56
2018-03-16T02:17:48.146Z,6.56
2018-03-16T02:18:48.385Z,6.56
2018-03-16T02:19:48.102Z,6.54
2018-03-16T02:20:48.346Z,6.56
2018-03-16T02:21:48.600Z,6.58
2018-03-16T02:22:48.303Z,6.51
2018-03-16T02:23:48.291Z,6.59
2018-03-16T02:24:48.264Z,6.51
2018-03-16T02:25:48.510Z,6.54
2018-03-16T02:26:48.237Z,6.54
2018-03-16T02:27:48.210Z,6.54
2018-03-16T02:28:48.197Z,6.59
2018-03-16T02:29:48.171Z,6.48
2018-03-16T02:30:48.433Z,6.48
2018-03-16T02:31:48.411Z,6.47
2018-03-16T02:32:48.113Z,6.5
2018-03-16T02:33:48.100Z,6.47
2018-03-16T02:34:48.344Z,6.5
2018-03-16T02:35:48.347Z,6.47
2018-03-16T02:36:47.767Z,6.48
2018-03-16T02:37:48.294Z,6.51
2018-03-16T02:38:47.723Z,6.48
2018-03-16T02:39:47.972Z,6.44
2018-03-16T02:40:47.957Z,6.35
2018-03-16T02:41:48.199Z,6.41
2018-03-16T02:42:47.643Z,6.43
2018-03-16T02:43:48.161Z,6.35
2018-03-16T02:44:47.604Z,6.36
2018-03-16T02:45:47.589Z,6.46
2018-03-16T02:46:48.097Z,6.33
2018-03-16T02:47:47.818Z,6.38
2018-03-16T02:48:47.795Z,6.35
2018-03-16T02:49:48.046Z,6.41
2018-03-16T02:50:48.026Z,6.33
2018-03-16T02:51:48.006Z,6.38
2018-03-16T02:52:47.715Z,6.41
2018-03-16T02:53:47.711Z,6.4
2018-03-16T02:54:47.942Z,6.36
2018-03-16T02:55:47.664Z,6.41
2018-03-16T02:56:47.906Z,6.47
2018-03-16T02:57:47.618Z,6.35
2018-03-16T02:58:47.600Z,6.36
2018-03-16T02:59:47.303Z,6.38
2018-03-16T03:00:47.557Z,6.38
2018-03-16T03:01:47.803Z,6.4
2018-03-16T03:02:47.246Z,6.3
2018-03-16T03:03:47.764Z,6.32
2018-03-16T03:04:47.474Z,6.3
2018-03-16T03:05:47.457Z,6.26
2018-03-16T03:06:47.767Z,6.28
2018-03-16T03:07:47.682Z,6.32
2018-03-16T03:08:47.654Z,6.32
2018-03-16T03:09:47.105Z,6.3
2018-03-16T03:10:47.357Z,6.4
2018-03-16T03:11:47.605Z,6.35
2018-03-16T03:12:47.047Z,6.28
2018-03-16T03:13:47.293Z,6.44
2018-03-16T03:14:47.277Z,6.29
2018-03-16T03:15:47.253Z,6.33
2018-03-16T03:16:47.496Z,6.3
2018-03-16T03:17:47.483Z,6.35
2018-03-16T03:18:46.931Z,6.3
2018-03-16T03:19:47.179Z,6.33
2018-03-16T03:20:47.421Z,6.29
2018-03-16T03:21:47.399Z,6.32
2018-03-16T03:22:47.115Z,6.35
2018-03-16T03:23:47.365Z,6.32
2018-03-16T03:24:47.339Z,6.3
2018-03-16T03:25:47.061Z,6.32
2018-03-16T03:26:47.038Z,6.3
2018-03-16T03:27:47.016Z,6.29
2018-03-16T03:28:47.259Z,6.29
2018-03-16T03:29:46.708Z,6.32
2018-03-16T03:30:46.965Z,6.35
2018-03-16T03:31:47.207Z,6.3
2018-03-16T03:32:47.177Z,6.3
2018-03-16T03:33:46.628Z,6.25
2018-03-16T03:34:46.871Z,6.29
2018-03-16T03:35:47.123Z,6.32
2018-03-16T03:36:46.568Z,6.33
2018-03-16T03:37:46.547Z,6.32
2018-03-16T03:38:46.793Z,6.29
2018-03-16T03:39:46.776Z,6.28
2018-03-16T03:40:46.485Z,6.29
2018-03-16T03:41:46.993Z,6.29
2018-03-16T03:42:46.981Z,6.26
2018-03-16T03:43:46.690Z,6.21
2018-03-16T03:44:46.941Z,6.28
2018-03-16T03:45:46.919Z,6.28
2018-03-16T03:46:46.901Z,6.21
2018-03-16T03:47:47.080Z,6.21
2018-03-16T03:48:46.595Z,6.25
2018-03-16T03:49:46.845Z,6.22
2018-03-16T03:50:46.557Z,6.29
2018-03-16T03:51:46.541Z,6.21
2018-03-16T03:52:46.548Z,6.25
2018-03-16T03:53:46.752Z,6.25
2018-03-16T03:54:46.207Z,6.26
2018-03-16T03:55:46.452Z,6.22
2018-03-16T03:56:46.435Z,6.22
2018-03-16T03:57:46.410Z,6.25
2018-03-16T03:58:46.671Z,6.25
2018-03-16T03:59:46.372Z,6.28
2018-03-16T04:00:46.621Z,6.16
2018-03-16T04:01:46.074Z,6.13
2018-03-16T04:02:46.313Z,6.1
2018-03-16T04:03:46.026Z,6.09
2018-03-16T04:04:46.547Z,6.09
2018-03-16T04:05:46.252Z,6.11
2018-03-16T04:06:46.513Z,6.09
2018-03-16T04:07:46.477Z,6.09
2018-03-16T04:08:46.194Z,6.1
2018-03-16T04:09:45.908Z,6.11
2018-03-16T04:10:45.887Z,6.11
2018-03-16T04:11:46.138Z,6.07
2018-03-16T04:12:45.848Z,6.1
2018-03-16T04:13:46.090Z,6.04
2018-03-16T04:14:46.072Z,6.01
2018-03-16T04:15:45.786Z,6.11
2018-03-16T04:16:46.035Z,6.09
2018-03-16T04:17:46.275Z,6.09
2018-03-16T04:18:46.257Z,6.09
2018-03-16T04:19:45.971Z,6.06
2018-03-16T04:20:46.213Z,6.06
2018-03-16T04:21:46.200Z,6.07
2018-03-16T04:22:46.177Z,6.11
2018-03-16T04:23:45.894Z,6.09
2018-03-16T04:24:46.138Z,6.04
2018-03-16T04:25:46.125Z,6.03
2018-03-16T04:26:46.095Z,6.11
2018-03-16T04:27:46.079Z,6.04
2018-03-16T04:28:45.789Z,6.04
2018-03-16T04:29:45.767Z,6.09
2018-03-16T04:30:45.748Z,6.04
2018-03-16T04:31:45.729Z,6.06
2018-03-16T04:32:45.445Z,6.09
2018-03-16T04:33:45.691Z,6.07
2018-03-16T04:34:45.936Z,6.09
2018-03-16T04:35:45.653Z,6.04
2018-03-16T04:36:45.630Z,6.06
2018-03-16T04:37:45.873Z,6.09
2018-03-16T04:38:45.321Z,6.06
2018-03-16T04:39:45.303Z,6.03
2018-03-16T04:40:45.547Z,5.92
2018-03-16T04:41:45.264Z,6.03
2018-03-16T04:42:45.773Z,5.92
2018-03-16T04:43:45.490Z,6
2018-03-16T04:44:45.463Z,6.1
2018-03-16T04:45:45.450Z,6.01
2018-03-16T04:46:45.435Z,6.01
2018-03-16T04:47:45.147Z,5.98
2018-03-16T04:48:45.656Z,5.88
2018-03-16T04:49:45.634Z,6.01
2018-03-16T04:50:45.356Z,6.03
2018-03-16T04:51:45.340Z,5.93
2018-03-16T04:52:45.567Z,6.01
2018-03-16T04:53:45.286Z,6.03
2018-03-16T04:54:45.000Z,5.93
2018-03-16T04:55:45.245Z,5.91
2018-03-16T04:56:45.226Z,5.92
2018-03-16T04:57:45.212Z,5.95
2018-03-16T04:58:45.186Z,5.93
2018-03-16T04:59:45.430Z,5.96
2018-03-16T05:00:45.147Z,6
2018-03-16T05:01:45.120Z,5.92
2018-03-16T05:02:45.105Z,5.92
2018-03-16T05:03:45.081Z,5.95
2018-03-16T05:04:45.062Z,5.91
2018-03-16T05:05:45.311Z,5.91
2018-03-16T05:06:45.030Z,5.92
2018-03-16T05:07:45.270Z,5.92
2018-03-16T05:08:44.976Z,5.91
2018-03-16T05:09:44.960Z,5.89
2018-03-16T05:10:44.944Z,6
2018-03-16T05:11:44.927Z,5.91
2018-03-16T05:12:45.167Z,5.91
2018-03-16T05:13:44.877Z,5.91
2018-03-16T05:14:44.856Z,5.93
2018-03-16T05:15:44.927Z,5.91
2018-03-16T05:16:44.824Z,5.96
2018-03-16T05:17:45.063Z,5.93
2018-03-16T05:18:45.045Z,5.95
2018-03-16T05:19:45.021Z,5.91
2018-03-16T05:20:44.474Z,5.88
2018-03-16T05:21:44.713Z,5.95
2018-03-16T05:22:44.701Z,5.88
2018-03-16T05:23:44.950Z,5.83
2018-03-16T05:24:44.918Z,5.85
2018-03-16T05:25:44.638Z,5.89
2018-03-16T05:26:44.619Z,5.89
2018-03-16T05:27:44.596Z,5.82
2018-03-16T05:28:44.576Z,5.82
2018-03-16T05:29:44.817Z,5.83
2018-03-16T05:30:44.826Z,5.77
2018-03-16T05:31:44.517Z,5.89
2018-03-16T05:32:44.495Z,5.82
2018-03-16T05:33:44.482Z,5.83
2018-03-16T05:34:44.186Z,5.86
2018-03-16T05:35:44.177Z,5.83
2018-03-16T05:36:44.411Z,5.86
2018-03-16T05:37:44.657Z,5.91
2018-03-16T05:38:44.109Z,5.74
2018-03-16T05:39:44.349Z,5.82
2018-03-16T05:40:44.361Z,5.86
2018-03-16T05:41:44.313Z,5.88
2018-03-16T05:42:44.651Z,5.83
2018-03-16T05:43:44.006Z,5.82
2018-03-16T05:44:44.251Z,5.77
2018-03-16T05:45:44.498Z,5.81
2018-03-16T05:46:43.945Z,5.81
2018-03-16T05:47:44.662Z,5.75
2018-03-16T05:48:43.907Z,5.82
2018-03-16T05:49:43.886Z,5.81
2018-03-16T05:50:44.130Z,5.83
2018-03-16T05:51:44.108Z,5.78
2018-03-16T05:52:44.097Z,5.78
2018-03-16T05:53:44.066Z,5.83
2018-03-16T05:54:44.324Z,5.75
2018-03-16T05:55:44.295Z,5.77
2018-03-16T05:56:44.011Z,5.75
2018-03-16T05:57:44.251Z,5.73
2018-03-16T05:58:43.964Z,5.67
2018-03-16T05:59:43.945Z,5.81
2018-03-16T06:00:44.006Z,5.75
2018-03-16T06:01:43.644Z,5.68
2018-03-16T06:02:43.884Z,5.73
2018-03-16T06:03:43.863Z,5.71
2018-03-16T06:04:43.580Z,5.63
2018-03-16T06:05:43.841Z,5.63
2018-03-16T06:06:44.074Z,5.64
2018-03-16T06:07:43.783Z,5.71
2018-03-16T06:08:43.763Z,5.71
2018-03-16T06:09:43.749Z,5.66
2018-03-16T06:10:43.733Z,5.68
2018-03-16T06:11:43.974Z,5.63
2018-03-16T06:12:43.697Z,5.77
2018-03-16T06:13:43.396Z,5.68
2018-03-16T06:14:43.642Z,5.63
2018-03-16T06:15:43.352Z,5.6
2018-03-16T06:16:43.600Z,5.6
2018-03-16T06:17:43.847Z,5.59
2018-03-16T06:18:43.843Z,5.67
2018-03-16T06:19:43.818Z,5.56
2018-03-16T06:20:43.521Z,5.53
2018-03-16T06:21:43.237Z,5.57
2018-03-16T06:22:43.738Z,5.64
2018-03-16T06:23:43.449Z,5.55
2018-03-16T06:24:43.431Z,5.64
2018-03-16T06:25:43.677Z,5.59
2018-03-16T06:26:43.393Z,5.55
2018-03-16T06:27:43.375Z,5.63
2018-03-16T06:28:43.354Z,5.57
2018-03-16T06:29:43.331Z,5.57
2018-03-16T06:30:43.308Z,5.56
2018-03-16T06:31:43.026Z,5.67
2018-03-16T06:32:43.281Z,5.63
2018-03-16T06:33:42.990Z,5.66
2018-03-16T06:34:43.228Z,5.67
2018-03-16T06:35:43.479Z,5.6
2018-03-16T06:36:43.193Z,5.57
2018-03-16T06:37:43.168Z,5.53
2018-03-16T06:38:43.151Z,5.55
2018-03-16T06:39:43.397Z,5.66
2018-03-16T06:40:43.123Z,5.56
2018-03-16T06:41:43.086Z,5.59
2018-03-16T06:42:43.061Z,5.68
2018-03-16T06:43:43.311Z,5.56
2018-03-16T06:44:43.275Z,5.52
2018-03-16T06:45:43.274Z,5.6
2018-03-16T06:46:42.985Z,5.59
2018-03-16T06:47:42.697Z,5.56
2018-03-16T06:48:42.675Z,5.56
2018-03-16T06:49:43.187Z,5.59
2018-03-16T06:50:42.898Z,5.55
2018-03-16T06:51:42.612Z,5.55
2018-03-16T06:52:42.859Z,5.57
2018-03-16T06:53:42.847Z,5.55
2018-03-16T06:54:43.086Z,5.6
2018-03-16T06:55:42.538Z,5.59
2018-03-16T06:56:42.787Z,5.55
2018-03-16T06:57:42.755Z,5.59
2018-03-16T06:58:42.743Z,5.57
2018-03-16T06:59:42.716Z,5.57
2018-03-16T07:00:42.695Z,5.57
2018-03-16T07:01:42.937Z,5.57
2018-03-16T07:02:42.916Z,5.59
2018-03-16T07:03:42.645Z,5.59
2018-03-16T07:04:42.353Z,5.56
2018-03-16T07:05:42.855Z,5.6
2018-03-16T07:06:42.310Z,5.59
2018-03-16T07:07:42.553Z,5.5
2018-03-16T07:08:42.530Z,5.59
2018-03-16T07:09:42.776Z,5.46
2018-03-16T07:10:42.486Z,5.48
2018-03-16T07:11:42.471Z,5.49
2018-03-16T07:12:42.722Z,5.46
2018-03-16T07:13:42.703Z,5.5
2018-03-16T07:14:42.149Z,5.45
2018-03-16T07:15:42.123Z,5.43
2018-03-16T07:16:42.364Z,5.45
2018-03-16T07:17:42.084Z,5.48
2018-03-16T07:18:42.336Z,5.5
2018-03-16T07:19:42.577Z,5.45
2018-03-16T07:20:42.281Z,5.52
2018-03-16T07:21:42.000Z,5.38
2018-03-16T07:22:42.246Z,5.52
2018-03-16T07:23:42.227Z,5.49
2018-03-16T07:24:42.487Z,5.49
2018-03-16T07:25:42.447Z,5.48
2018-03-16T07:26:42.160Z,5.49
2018-03-16T07:27:42.405Z,5.46
2018-03-16T07:28:42.385Z,5.55
2018-03-16T07:29:41.853Z,5.55
2018-03-16T07:30:42.344Z,5.59
2018-03-16T07:31:42.056Z,5.48
2018-03-16T07:32:42.301Z,5.46
2018-03-16T07:33:42.019Z,5.48
2018-03-16T07:34:41.998Z,5.45
2018-03-16T07:35:41.979Z,5.45
2018-03-16T07:36:42.221Z,5.43
2018-03-16T07:37:41.937Z,5.49
2018-03-16T07:38:41.651Z,5.48
2018-03-16T07:39:41.893Z,5.48
2018-03-16T07:40:41.878Z,5.48
2018-03-16T07:41:41.853Z,5.45
2018-03-16T07:42:42.103Z,5.43
2018-03-16T07:43:42.080Z,5.48
2018-03-16T07:44:41.794Z,5.41
2018-03-16T07:45:41.511Z,5.46
2018-03-16T07:46:41.752Z,5.41
2018-03-16T07:47:41.949Z,5.49
2018-03-16T07:48:41.715Z,5.46
2018-03-16T07:49:41.424Z,5.48
2018-03-16T07:50:41.670Z,5.4
2018-03-16T07:51:41.647Z,5.49
2018-03-16T07:52:41.629Z,5.49
2018-03-16T07:53:41.866Z,5.48
2018-03-16T07:54:41.323Z,5.6
2018-03-16T07:55:41.303Z,5.59
2018-03-16T07:56:41.552Z,5.59
2018-03-16T07:57:41.535Z,5.53
2018-03-16T07:58:41.502Z,5.53
2018-03-16T07:59:41.488Z,5.57
2018-03-16T08:00:41.471Z,5.6
2018-03-16T08:01:41.445Z,5.55
2018-03-16T08:02:41.419Z,5.56
2018-03-16T08:03:41.406Z,5.64
2018-03-16T08:04:41.392Z,5.53
2018-03-16T08:05:41.093Z,5.53
2018-03-16T08:06:41.078Z,5.52
2018-03-16T08:07:41.053Z,5.6
2018-03-16T08:08:41.034Z,5.57
2018-03-16T08:09:41.013Z,5.55
2018-03-16T08:10:41.264Z,5.53
2018-03-16T08:11:41.238Z,5.6
2018-03-16T08:12:40.956Z,5.64
2018-03-16T08:13:41.208Z,5.68
2018-03-16T08:14:41.179Z,5.71
2018-03-16T08:15:41.163Z,5.68
2018-03-16T08:16:41.140Z,5.68
2018-03-16T08:17:41.384Z,5.63
2018-03-16T08:18:40.836Z,5.71
2018-03-16T08:19:41.102Z,5.66
2018-03-16T08:20:40.791Z,5.68
2018-03-16T08:21:40.770Z,5.67
2018-03-16T08:22:41.014Z,5.68
2018-03-16T08:23:41.261Z,5.67
2018-03-16T08:24:40.711Z,5.68
2018-03-16T08:25:40.696Z,5.75
2018-03-16T08:26:40.933Z,5.66
2018-03-16T08:27:40.919Z,5.7
2018-03-16T08:28:41.161Z,5.71
2018-03-16T08:29:41.136Z,5.74
2018-03-16T08:30:40.853Z,5.73
2018-03-16T08:31:40.836Z,5.75
2018-03-16T08:32:41.078Z,5.67
2018-03-16T08:33:41.058Z,5.67
2018-03-16T08:34:40.769Z,5.68
2018-03-16T08:35:41.018Z,5.66
2018-03-16T08:36:40.732Z,5.74
2018-03-16T08:37:40.713Z,5.7
2018-03-16T08:38:40.689Z,5.66
2018-03-16T08:39:40.938Z,5.67
2018-03-16T08:40:40.653Z,5.68
2018-03-16T08:41:40.895Z,5.7
2018-03-16T08:43:42.518Z,5.68
2018-03-16T08:43:52.413Z,5.64
2018-03-16T08:44:52.400Z,5.67
2018-03-16T08:45:52.382Z,5.7
2018-03-16T08:46:52.085Z,5.67
2018-03-16T08:47:52.336Z,5.68
2018-03-16T08:48:52.310Z,5.68
2018-03-16T08:49:52.330Z,5.7
2018-03-16T08:50:52.540Z,5.67
2018-03-16T08:51:52.526Z,5.77
2018-03-16T08:52:52.235Z,5.78
2018-03-16T08:53:52.212Z,5.81
2018-03-16T08:54:52.194Z,5.77
2018-03-16T08:55:52.187Z,5.83
2018-03-16T08:56:52.160Z,5.86
2018-03-16T08:57:52.127Z,5.89
2018-03-16T08:58:52.386Z,5.98
2018-03-16T08:59:52.103Z,5.92
2018-03-16T09:00:52.067Z,5.83
2018-03-16T09:01:52.052Z,5.88
2018-03-16T09:02:52.050Z,6.03
2018-03-16T09:03:52.272Z,5.88
2018-03-16T09:04:52.261Z,5.86
2018-03-16T09:05:52.236Z,5.92
2018-03-16T09:06:51.951Z,5.92
2018-03-16T09:07:52.194Z,6.03
2018-03-16T09:08:51.938Z,5.92
2018-03-16T09:09:51.629Z,5.98
2018-03-16T09:10:51.870Z,5.93
2018-03-16T09:11:51.850Z,5.96
2018-03-16T09:12:51.834Z,5.96
2018-03-16T09:13:51.813Z,6
2018-03-16T09:14:52.060Z,5.95
2018-03-16T09:15:51.781Z,6
2018-03-16T09:16:51.496Z,6.06
2018-03-16T09:17:51.730Z,6.1
2018-03-16T09:18:51.978Z,6.09
2018-03-16T09:19:51.958Z,6.1
2018-03-16T09:20:51.675Z,6.07
2018-03-16T09:21:51.383Z,6.1
2018-03-16T09:22:51.632Z,6.11
2018-03-16T09:23:51.616Z,6.07
2018-03-16T09:24:51.591Z,6.06
2018-03-16T09:25:51.579Z,6.1
2018-03-16T09:26:51.289Z,6.13
2018-03-16T09:27:51.814Z,6.22
2018-03-16T09:28:51.518Z,6.25
2018-03-16T09:29:51.794Z,6.33
2018-03-16T09:30:51.478Z,6.3
2018-03-16T09:31:51.460Z,6.29
2018-03-16T09:32:51.435Z,6.3
2018-03-16T09:33:51.417Z,6.29
2018-03-16T09:34:51.523Z,6.36
2018-03-16T09:35:51.639Z,6.3
2018-03-16T09:36:51.358Z,6.32
2018-03-16T09:37:51.600Z,6.32
2018-03-16T09:38:51.057Z,6.28
2018-03-16T09:39:51.572Z,6.38
2018-03-16T09:40:51.558Z,6.26
2018-03-16T09:41:51.542Z,6.29
2018-03-16T09:42:51.511Z,6.29
2018-03-16T09:43:51.230Z,6.29
2018-03-16T09:44:51.486Z,6.16
2018-03-16T09:45:51.186Z,6.1
2018-03-16T09:46:51.435Z,6.11
2018-03-16T09:47:51.354Z,6.06
2018-03-16T09:48:51.127Z,6.19
2018-03-16T09:49:51.372Z,6.13
2018-03-16T09:50:51.087Z,6.1
2018-03-16T09:51:51.071Z,6.21
2018-03-16T09:52:50.787Z,6.21
2018-03-16T09:53:51.297Z,6.22
2018-03-16T09:54:51.293Z,6.19
2018-03-16T09:55:50.724Z,6.25
2018-03-16T09:56:50.974Z,6.22
2018-03-16T09:57:50.991Z,6.29
2018-03-16T09:58:50.667Z,6.26
2018-03-16T09:59:50.916Z,6.25
2018-03-16T10:00:51.159Z,6.14
2018-03-16T10:01:51.137Z,6.22
2018-03-16T10:02:50.854Z,6.16
2018-03-16T10:03:50.834Z,6.16
2018-03-16T10:04:50.816Z,6.16
2018-03-16T10:05:50.797Z,6.19
2018-03-16T10:06:51.040Z,6.13
2018-03-16T10:07:50.493Z,6.07
2018-03-16T10:08:50.474Z,6.11
2018-03-16T10:09:50.982Z,6.07
2018-03-16T10:10:50.967Z,6.11
2018-03-16T10:11:50.951Z,6.09
2018-03-16T10:12:50.657Z,6.07
2018-03-16T10:13:50.909Z,6.06
2018-03-16T10:14:50.619Z,6.07
2018-03-16T10:15:50.602Z,6.07
2018-03-16T10:16:50.588Z,6.11
2018-03-16T10:17:50.644Z,5.98
2018-03-16T10:18:50.544Z,5.93
2018-03-16T10:19:50.526Z,6.07
2018-03-16T10:20:50.501Z,6.03
2018-03-16T10:21:50.214Z,6
2018-03-16T10:22:50.470Z,5.93
2018-03-16T10:23:50.708Z,6
2018-03-16T10:24:50.154Z,5.93
2018-03-16T10:25:50.139Z,5.96
2018-03-16T10:26:50.384Z,6
2018-03-16T10:27:50.100Z,5.96
2018-03-16T10:28:50.347Z,5.88
2018-03-16T10:29:50.325Z,5.91
2018-03-16T10:30:50.305Z,5.98
2018-03-16T10:31:50.555Z,6
2018-03-16T10:32:50.264Z,6.03
2018-03-16T10:33:50.264Z,6.04
2018-03-16T10:34:50.230Z,6.06
2018-03-16T10:35:50.210Z,6.1
2018-03-16T10:36:50.190Z,6.07
2018-03-16T10:37:50.433Z,6.07
2018-03-16T10:38:50.158Z,6.1
2018-03-16T10:39:50.395Z,6.06
2018-03-16T10:40:50.413Z,6.11
2018-03-16T10:41:49.828Z,6.06
2018-03-16T10:42:50.139Z,6.06
2018-03-16T10:43:50.053Z,6.09
2018-03-16T10:44:50.036Z,6.06
2018-03-16T10:45:50.013Z,6.04
2018-03-16T10:46:50.266Z,6.09
2018-03-16T10:47:50.242Z,6.01
2018-03-16T10:48:50.013Z,6.01
2018-03-16T10:49:50.202Z,6.04
2018-03-16T10:50:49.917Z,6.07
2018-03-16T10:51:50.204Z,6.04
2018-03-16T10:52:49.876Z,6.01
2018-03-16T10:53:49.859Z,6.07
2018-03-16T10:54:50.138Z,6.06
2018-03-16T10:55:50.080Z,6.07
2018-03-16T10:56:49.801Z,6.07
2018-03-16T10:57:50.048Z,6.09
2018-03-16T10:58:49.772Z,5.96
2018-03-16T10:59:49.742Z,6.11
2018-03-16T11:00:49.996Z,6.06
2018-03-16T11:01:49.700Z,6.09
2018-03-16T11:02:49.953Z,6.03
2018-03-16T11:03:49.664Z,6.06
2018-03-16T11:04:49.643Z,6.01
2018-03-16T11:05:49.945Z,5.96
2018-03-16T11:06:49.335Z,5.91
2018-03-16T11:07:49.850Z,5.92
2018-03-16T11:08:49.574Z,5.91
2018-03-16T11:09:49.277Z,5.91
2018-03-16T11:10:49.809Z,5.92
2018-03-16T11:11:49.773Z,5.88
2018-03-16T11:12:49.816Z,6.01
2018-03-16T11:13:49.472Z,5.95
2018-03-16T11:14:49.448Z,5.93
2018-03-16T11:15:49.438Z,5.92
2018-03-16T11:16:49.417Z,6.01
2018-03-16T11:17:49.128Z,5.95
2018-03-16T11:18:49.642Z,6.04
2018-03-16T11:19:49.402Z,6.04
2018-03-16T11:20:49.598Z,5.91
2018-03-16T11:21:49.307Z,5.95
2018-03-16T11:22:49.291Z,5.82
2018-03-16T11:23:49.276Z,5.83
2018-03-16T11:24:49.449Z,5.83
2018-03-16T11:25:49.496Z,5.83
2018-03-16T11:26:48.997Z,5.81
2018-03-16T11:27:49.550Z,5.73
2018-03-16T11:28:49.177Z,5.78
2018-03-16T11:29:49.150Z,5.77
2018-03-16T11:30:49.133Z,5.86
2018-03-16T11:31:49.118Z,5.83
2018-03-16T11:32:49.089Z,5.75
2018-03-16T11:33:49.071Z,5.83
2018-03-16T11:34:49.056Z,5.81
2018-03-16T11:35:49.301Z,5.81
2018-03-16T11:36:49.276Z,5.82
2018-03-16T11:37:48.738Z,5.81
2018-03-16T11:38:48.972Z,5.73
2018-03-16T11:39:49.219Z,5.74
2018-03-16T11:40:49.199Z,5.64
2018-03-16T11:41:48.919Z,5.73
2018-03-16T11:42:48.631Z,5.77
2018-03-16T11:43:48.877Z,5.82
2018-03-16T11:44:48.864Z,5.78
2018-03-16T11:45:48.833Z,5.75
2018-03-16T11:46:49.084Z,5.66
2018-03-16T11:47:48.932Z,5.74
2018-03-16T11:48:49.037Z,5.74
2018-03-16T11:49:48.753Z,5.73
2018-03-16T11:50:48.732Z,5.71
2018-03-16T11:51:48.979Z,5.74
2018-03-16T11:52:48.696Z,5.68
2018-03-16T11:53:48.735Z,5.6
2018-03-16T11:54:48.389Z,5.71
2018-03-16T11:55:48.641Z,5.63
2018-03-16T11:56:48.954Z,5.6
2018-03-16T11:57:48.605Z,5.64
2018-03-16T11:58:48.850Z,5.57
2018-03-16T11:59:48.818Z,5.63
2018-03-16T12:00:48.534Z,5.64
2018-03-16T12:01:48.250Z,5.71
2018-03-16T12:02:48.766Z,5.63
2018-03-16T12:03:48.474Z,5.63
2018-03-16T12:04:48.453Z,5.67
2018-03-16T12:05:49.342Z,5.73
2018-03-16T12:06:48.544Z,5.67
2018-03-16T12:07:48.422Z,5.59
2018-03-16T12:08:48.308Z,5.64
2018-03-16T12:09:48.359Z,5.71
2018-03-16T12:10:48.081Z,5.68
2018-03-16T12:11:48.581Z,5.59
2018-03-16T12:12:48.034Z,5.73
2018-03-16T12:13:48.275Z,5.71
2018-03-16T12:14:47.999Z,5.67
2018-03-16T12:15:48.502Z,5.66
2018-03-16T12:16:48.218Z,5.63
2018-03-16T12:17:48.463Z,5.67
2018-03-16T12:18:48.175Z,5.6
2018-03-16T12:19:48.154Z,5.55
2018-03-16T12:20:48.400Z,5.57
2018-03-16T12:21:48.136Z,5.6
2018-03-16T12:22:48.409Z,5.57
2018-03-16T12:23:48.124Z,5.63
2018-03-16T12:24:48.056Z,5.56
2018-03-16T12:25:47.780Z,5.57
2018-03-16T12:26:48.120Z,5.6
2018-03-16T12:27:47.783Z,5.64
2018-03-16T12:28:52.983Z,5.59
2018-03-16T12:29:48.266Z,5.6
2018-03-16T12:30:48.293Z,5.59
2018-03-16T12:31:47.934Z,5.59
2018-03-16T12:32:47.908Z,5.56
2018-03-16T12:33:47.880Z,5.59
2018-03-16T12:34:47.867Z,5.52
2018-03-16T12:35:48.102Z,5.59
2018-03-16T12:36:48.128Z,5.5
2018-03-16T12:37:47.800Z,5.45
2018-03-16T12:38:47.777Z,5.43
2018-03-16T12:39:48.019Z,5.48
2018-03-16T12:40:47.734Z,5.48
2018-03-16T12:41:47.716Z,5.41
2018-03-16T12:42:47.691Z,5.5
2018-03-16T12:43:47.410Z,5.64
2018-03-16T12:44:47.390Z,5.49
2018-03-16T12:45:47.632Z,5.57
2018-03-16T12:46:47.874Z,5.59
2018-03-16T12:47:47.862Z,5.59
2018-03-16T12:48:47.574Z,5.57
2018-03-16T12:49:47.552Z,5.64
2018-03-16T12:50:47.812Z,5.68
2018-03-16T12:51:47.514Z,5.66
2018-03-16T12:52:47.500Z,5.63
2018-03-16T12:53:47.748Z,5.66
2018-03-16T12:54:47.451Z,5.74
2018-03-16T12:55:47.432Z,5.59
2018-03-16T12:56:47.151Z,5.57
2018-03-16T12:57:47.444Z,5.53
2018-03-16T12:58:47.640Z,5.5
2018-03-16T12:59:47.356Z,5.56
2018-03-16T13:00:47.333Z,5.52
2018-03-16T13:01:47.319Z,5.41
2018-03-16T13:02:47.667Z,5.48
2018-03-16T13:03:47.278Z,5.46
2018-03-16T13:04:47.255Z,5.48
2018-03-16T13:05:46.975Z,5.3
2018-03-16T13:06:46.950Z,5.32
2018-03-16T13:07:46.959Z,5.3
2018-03-16T13:08:47.179Z,5.28
2018-03-16T13:09:47.422Z,5.27
2018-03-16T13:10:46.866Z,5.27
2018-03-16T13:11:47.378Z,5.32
2018-03-16T13:12:47.373Z,5.27
2018-03-16T13:13:47.123Z,5.23
2018-03-16T13:14:47.054Z,5.25
2018-03-16T13:15:47.299Z,5.16
2018-03-16T13:16:46.747Z,5.2
2018-03-16T13:17:46.733Z,5.13
2018-03-16T13:18:46.706Z,5.17
2018-03-16T13:19:47.215Z,5.14
2018-03-16T13:20:46.936Z,5.1
2018-03-16T13:21:47.181Z,5.02